Time;durP1;ratioP1;P1;durP2;ratioP2;P2;SDS_P1;SDS_P2;PMS_P1;PMS_P2;Temp;Humidity;BMP_temperature;BMP_pressure;BME280_temperature;BME280_humidity;BME280_pressure;Samples;Min_cycle;Max_cycle;Signal;HPM_P1;HPM_P2
2022/07/11 00:00:09;;;;;;;7.07;3.05;;;16.40;99.90;;;;;;4923941;29;20036;-58
2022/07/11 00:02:36;;;;;;;5.43;2.92;;;16.40;99.90;;;;;;4930843;28;20186;-58
2022/07/11 00:05:02;;;;;;;7.05;3.20;;;16.40;99.90;;;;;;4932038;29;20039;-57
2022/07/11 00:07:28;;;;;;;5.40;2.40;;;16.40;99.90;;;;;;4925284;29;20043;-59
2022/07/11 00:09:54;;;;;;;9.25;2.70;;;16.40;99.90;;;;;;4902563;29;20066;-58
2022/07/11 00:12:21;;;;;;;6.65;2.58;;;16.40;99.90;;;;;;4937792;28;20436;-59
2022/07/11 00:14:48;;;;;;;4.35;2.47;;;16.30;99.90;;;;;;4929140;29;20753;-59
2022/07/11 00:17:13;;;;;;;5.65;2.28;;;16.30;99.90;;;;;;4933822;29;20126;-57
2022/07/11 00:19:39;;;;;;;4.25;2.20;;;16.30;99.90;;;;;;4928954;28;20563;-59
2022/07/11 00:22:06;;;;;;;4.80;2.45;;;16.30;99.90;;;;;;4910349;29;20039;-58
2022/07/11 00:24:32;;;;;;;6.30;2.75;;;16.30;99.90;;;;;;4929645;29;20368;-57
2022/07/11 00:26:58;;;;;;;7.00;2.72;;;16.20;99.90;;;;;;4931355;29;20048;-59
2022/07/11 00:29:24;;;;;;;9.50;3.55;;;16.20;99.90;;;;;;4920272;29;20498;-59
2022/07/11 00:31:49;;;;;;;5.50;2.53;;;16.20;99.90;;;;;;4921625;28;20047;-57
2022/07/11 00:34:17;;;;;;;7.60;2.67;;;16.20;99.90;;;;;;4932528;29;20039;-59
2022/07/11 00:36:43;;;;;;;6.15;2.85;;;16.20;99.90;;;;;;4948393;28;20047;-58
2022/07/11 00:39:09;;;;;;;6.53;2.83;;;16.20;99.90;;;;;;4924895;28;20040;-59
2022/07/11 00:41:34;;;;;;;5.40;2.92;;;16.10;99.90;;;;;;4930244;29;20541;-58
2022/07/11 00:44:01;;;;;;;6.55;3.20;;;16.10;99.90;;;;;;4931461;28;20043;-56
2022/07/11 00:46:28;;;;;;;6.22;3.42;;;16.10;99.90;;;;;;4929723;28;20126;-57
2022/07/11 00:48:55;;;;;;;5.05;3.10;;;16.10;99.90;;;;;;4931400;28;20053;-59
2022/07/11 00:51:22;;;;;;;7.63;3.20;;;16.10;99.90;;;;;;4944689;28;20107;-57
2022/07/11 00:53:53;;;;;;;5.38;3.55;;;16.10;99.90;;;;;;4923599;28;20043;-59
2022/07/11 00:56:20;;;;;;;10.55;3.95;;;16.10;99.90;;;;;;4922200;29;20497;-60
2022/07/11 00:58:50;;;;;;;6.15;3.13;;;16.10;99.90;;;;;;4929208;28;20032;-58
2022/07/11 01:01:17;;;;;;;9.15;3.30;;;16.00;99.90;;;;;;4908379;29;20048;-59
2022/07/11 01:03:42;;;;;;;6.95;3.25;;;16.00;99.90;;;;;;4941039;28;20059;-58
2022/07/11 01:06:08;;;;;;;7.90;3.58;;;16.00;99.90;;;;;;4931712;28;20166;-60
2022/07/11 01:08:36;;;;;;;12.93;3.85;;;16.00;99.90;;;;;;4928317;29;20092;-59
2022/07/11 01:11:03;;;;;;;12.02;3.53;;;16.00;99.90;;;;;;4924000;28;20050;-59
2022/07/11 01:13:30;;;;;;;6.90;2.90;;;16.00;99.90;;;;;;4965851;28;20509;-58
2022/07/11 01:16:10;;;;;;;12.30;3.45;;;16.00;99.90;;;;;;4925622;28;20044;-60
2022/07/11 01:18:35;;;;;;;7.47;3.58;;;16.00;99.90;;;;;;4924446;28;20078;-59
2022/07/11 01:21:07;;;;;;;5.80;3.08;;;16.10;99.90;;;;;;4931132;28;20447;-58
2022/07/11 01:23:34;;;;;;;11.77;4.47;;;16.10;99.90;;;;;;4921951;28;20504;-59
2022/07/11 01:25:59;;;;;;;6.43;3.88;;;16.10;99.90;;;;;;4913366;28;20041;-59
2022/07/11 01:28:25;;;;;;;9.10;4.25;;;16.10;99.90;;;;;;4930368;28;20371;-59
2022/07/11 01:30:51;;;;;;;10.27;4.13;;;16.10;99.90;;;;;;4927620;28;20110;-57
2022/07/11 01:33:16;;;;;;;9.40;4.40;;;16.10;99.90;;;;;;4947440;28;20043;-59
2022/07/11 01:35:42;;;;;;;9.20;4.35;;;16.00;99.90;;;;;;4924376;29;20117;-57
2022/07/11 01:38:08;;;;;;;9.57;4.10;;;16.00;99.90;;;;;;4927373;29;20044;-59
2022/07/11 01:40:33;;;;;;;8.45;4.07;;;16.00;99.90;;;;;;4922706;28;20551;-59
2022/07/11 01:42:59;;;;;;;7.95;3.53;;;16.00;99.90;;;;;;4935134;29;20043;-59
2022/07/11 01:45:25;;;;;;;8.43;3.65;;;16.00;99.90;;;;;;4925209;28;20102;-58
2022/07/11 01:47:50;;;;;;;8.52;3.72;;;16.00;99.90;;;;;;4926346;28;20401;-59
2022/07/11 01:50:16;;;;;;;12.40;4.28;;;16.00;99.90;;;;;;4929467;28;20043;-59
2022/07/11 01:52:42;;;;;;;10.88;4.35;;;16.00;99.90;;;;;;4945984;28;20040;-58
2022/07/11 01:55:08;;;;;;;8.55;3.33;;;16.00;99.90;;;;;;4933421;28;20047;-58
2022/07/11 01:57:34;;;;;;;8.60;4.75;;;16.00;99.90;;;;;;4926302;28;20115;-59
2022/07/11 01:59:59;;;;;;;8.70;3.63;;;16.00;99.90;;;;;;4928776;28;20313;-58
2022/07/11 02:02:25;;;;;;;7.05;3.53;;;16.00;99.90;;;;;;4920673;29;20039;-58
2022/07/11 02:04:51;;;;;;;9.60;4.47;;;16.00;99.90;;;;;;4928053;29;20046;-59
2022/07/11 02:08:11;;;;;;;6.93;3.75;;;16.00;99.90;;;;;;4933317;29;20043;-58
2022/07/11 02:10:02;;;;;;;9.85;4.45;;;16.00;99.90;;;;;;4921491;28;20043;-57
2022/07/11 02:12:28;;;;;;;9.27;3.47;;;16.00;99.90;;;;;;4925519;28;20180;-58
2022/07/11 02:14:54;;;;;;;6.55;3.50;;;16.00;99.90;;;;;;4921170;28;20079;-57
2022/07/11 02:17:19;;;;;;;9.02;2.97;;;16.00;99.90;;;;;;4908768;29;20044;-57
2022/07/11 02:19:45;;;;;;;6.75;3.50;;;16.00;99.90;;;;;;4919090;28;20591;-59
2022/07/11 02:22:11;;;;;;;8.02;3.60;;;16.00;99.90;;;;;;4921892;29;20417;-57
2022/07/11 02:24:36;;;;;;;10.93;3.65;;;16.00;99.90;;;;;;4928201;29;20421;-60
2022/07/11 02:27:02;;;;;;;8.98;3.80;;;16.00;99.90;;;;;;4933772;29;20043;-58
2022/07/11 02:29:28;;;;;;;8.18;3.58;;;16.00;99.90;;;;;;4929581;28;20081;-57
2022/07/11 02:31:54;;;;;;;8.50;3.80;;;16.00;99.90;;;;;;4932351;29;20401;-59
2022/07/11 02:34:19;;;;;;;10.90;3.85;;;15.90;99.90;;;;;;4933177;29;20494;-58
2022/07/11 02:36:45;;;;;;;7.32;3.40;;;15.90;99.90;;;;;;4925429;28;20079;-59
2022/07/11 02:39:11;;;;;;;6.95;3.65;;;15.90;99.90;;;;;;4921352;29;20047;-59
2022/07/11 02:41:37;;;;;;;5.00;3.55;;;15.90;99.90;;;;;;4990733;28;20043;-56
2022/07/11 02:44:02;;;;;;;8.57;3.80;;;15.90;99.90;;;;;;4932686;28;20107;-57
2022/07/11 02:46:28;;;;;;;4.80;3.15;;;15.90;99.90;;;;;;4922913;28;20036;-56
2022/07/11 02:48:54;;;;;;;7.63;3.08;;;15.90;99.90;;;;;;5012104;28;20036;-57
2022/07/11 02:51:19;;;;;;;7.72;2.80;;;15.90;99.90;;;;;;4925326;28;20099;-57
2022/07/11 02:53:45;;;;;;;8.65;3.10;;;16.00;99.90;;;;;;4939411;28;20040;-59
2022/07/11 02:56:13;;;;;;;8.35;3.13;;;16.00;99.90;;;;;;4926095;28;20045;-57
2022/07/11 02:58:38;;;;;;;5.53;2.90;;;15.90;99.90;;;;;;4920005;28;20419;-58
2022/07/11 03:01:05;;;;;;;7.72;3.42;;;16.00;99.90;;;;;;4917950;29;20135;-56
2022/07/11 03:03:31;;;;;;;6.72;2.97;;;16.00;99.90;;;;;;4922858;28;20054;-57
2022/07/11 03:05:56;;;;;;;7.43;2.50;;;16.00;99.90;;;;;;4935084;28;20040;-57
2022/07/11 03:08:23;;;;;;;6.80;2.90;;;16.00;99.90;;;;;;4923683;28;20055;-54
2022/07/11 03:10:48;;;;;;;7.78;3.15;;;16.00;99.90;;;;;;4929300;29;20059;-58
2022/07/11 03:13:14;;;;;;;11.13;3.50;;;16.00;99.90;;;;;;4923005;29;20442;-57
2022/07/11 03:15:40;;;;;;;5.97;2.47;;;16.00;99.90;;;;;;4915492;28;20490;-58
2022/07/11 03:18:07;;;;;;;4.72;2.28;;;15.90;99.90;;;;;;4923330;29;20135;-56
2022/07/11 03:20:33;;;;;;;5.53;2.50;;;15.90;99.90;;;;;;4939608;28;20127;-57
2022/07/11 03:22:58;;;;;;;6.18;2.33;;;16.00;99.90;;;;;;4922433;28;20119;-57
2022/07/11 03:25:24;;;;;;;4.25;2.38;;;15.90;99.90;;;;;;4925837;28;20075;-59
2022/07/11 03:27:50;;;;;;;6.25;2.28;;;16.00;99.90;;;;;;4928038;28;20051;-55
2022/07/11 03:30:16;;;;;;;8.25;2.40;;;15.90;99.90;;;;;;4907404;29;20064;-59
2022/07/11 03:32:42;;;;;;;6.35;2.13;;;15.90;99.90;;;;;;4933822;29;20043;-60
2022/07/11 03:37:52;;;;;;;5.28;1.92;;;15.90;99.90;;;;;;4927624;28;20059;-59
2022/07/11 03:40:18;;;;;;;5.50;2.00;;;15.90;99.90;;;;;;4930891;28;20038;-60
2022/07/11 03:42:44;;;;;;;5.95;2.40;;;15.90;99.90;;;;;;4940426;28;20038;-60
2022/07/11 03:45:10;;;;;;;3.67;1.63;;;15.90;99.90;;;;;;4918727;29;20059;-59
2022/07/11 03:47:36;;;;;;;4.97;1.88;;;15.90;99.90;;;;;;4921352;28;20044;-60
2022/07/11 03:50:03;;;;;;;3.47;1.83;;;15.90;99.90;;;;;;4931153;28;20119;-59
2022/07/11 03:52:29;;;;;;;7.13;2.38;;;15.90;99.90;;;;;;4928121;28;20033;-59
2022/07/11 03:54:54;;;;;;;3.63;1.90;;;15.90;99.90;;;;;;4923898;28;20040;-57
2022/07/11 03:57:20;;;;;;;6.32;2.00;;;15.90;99.90;;;;;;4923998;29;20162;-59
2022/07/11 03:59:46;;;;;;;2.42;1.42;;;15.90;99.90;;;;;;4925135;28;20054;-58
2022/07/11 04:02:11;;;;;;;5.28;2.10;;;15.90;99.90;;;;;;4931940;28;20040;-61
2022/07/11 04:04:37;;;;;;;3.97;2.10;;;15.90;99.90;;;;;;4916590;28;20442;-61
2022/07/11 04:07:03;;;;;;;2.88;1.80;;;15.90;99.90;;;;;;4928380;28;20044;-60
2022/07/11 04:09:29;;;;;;;4.97;1.85;;;16.00;99.90;;;;;;4931613;28;20070;-58
2022/07/11 04:11:55;;;;;;;4.97;2.05;;;16.00;99.90;;;;;;4920731;28;20054;-58
2022/07/11 04:14:21;;;;;;;4.25;2.00;;;16.00;99.90;;;;;;4919219;29;20443;-60
2022/07/11 04:16:46;;;;;;;6.05;2.70;;;16.00;99.90;;;;;;4926469;28;20039;-58
2022/07/11 04:19:12;;;;;;;6.20;2.78;;;16.00;99.90;;;;;;4925484;28;20059;-59
2022/07/11 04:21:38;;;;;;;7.85;2.53;;;16.00;99.90;;;;;;4924088;28;20040;-58
2022/07/11 04:24:04;;;;;;;5.00;2.50;;;16.00;99.90;;;;;;4920307;29;20047;-58
2022/07/11 04:26:30;;;;;;;4.30;2.30;;;16.00;99.90;;;;;;4919565;29;20127;-58
2022/07/11 04:28:55;;;;;;;5.07;1.90;;;16.00;99.90;;;;;;4922741;29;20131;-59
2022/07/11 04:31:21;;;;;;;4.50;1.95;;;16.00;99.90;;;;;;4927274;28;20039;-60
2022/07/11 04:33:47;;;;;;;3.75;1.85;;;16.00;99.90;;;;;;4929624;28;20036;-61
2022/07/11 04:36:12;;;;;;;3.90;1.67;;;16.00;99.90;;;;;;4945642;28;20092;-61
2022/07/11 04:38:38;;;;;;;2.65;1.45;;;16.00;99.90;;;;;;4920339;28;20039;-59
2022/07/11 04:41:04;;;;;;;4.90;1.58;;;16.00;99.90;;;;;;4922034;28;20039;-59
2022/07/11 04:43:29;;;;;;;5.05;1.92;;;16.00;99.90;;;;;;4923967;28;20067;-60
2022/07/11 04:45:55;;;;;;;3.85;1.58;;;16.00;99.90;;;;;;4922472;28;20055;-59
2022/07/11 04:48:21;;;;;;;3.60;1.88;;;16.00;99.90;;;;;;4910663;28;20040;-59
2022/07/11 04:50:47;;;;;;;5.40;1.65;;;16.00;99.90;;;;;;4927597;29;20043;-60
2022/07/11 04:53:13;;;;;;;4.25;1.70;;;16.00;99.90;;;;;;4918352;29;20122;-59
2022/07/11 04:55:41;;;;;;;5.05;1.80;;;15.90;99.90;;;;;;4938199;29;20046;-58
2022/07/11 04:58:08;;;;;;;3.50;1.58;;;15.90;99.90;;;;;;4924556;28;20082;-57
2022/07/11 05:00:35;;;;;;;3.08;1.23;;;15.90;99.90;;;;;;4930051;28;20491;-60
2022/07/11 05:03:01;;;;;;;5.35;1.98;;;15.90;99.90;;;;;;4924189;28;20083;-58
2022/07/11 05:05:27;;;;;;;3.42;1.75;;;16.00;99.90;;;;;;4926249;28;20139;-58
2022/07/11 05:07:53;;;;;;;4.28;1.50;;;16.00;99.90;;;;;;4941138;28;20131;-60
2022/07/11 05:10:19;;;;;;;3.67;1.52;;;16.00;99.90;;;;;;4918448;28;20066;-60
2022/07/11 05:12:44;;;;;;;4.72;1.45;;;16.00;99.90;;;;;;4924448;29;20075;-58
2022/07/11 05:15:10;;;;;;;3.63;1.50;;;16.00;99.90;;;;;;4935946;29;20048;-58
2022/07/11 05:17:36;;;;;;;4.30;1.20;;;16.00;99.90;;;;;;4935439;29;20132;-60
2022/07/11 05:20:03;;;;;;;4.15;1.23;;;16.00;99.90;;;;;;4925386;28;20426;-58
2022/07/11 05:22:29;;;;;;;2.67;1.10;;;16.10;99.90;;;;;;4924924;29;20179;-59
2022/07/11 05:24:54;;;;;;;2.10;1.00;;;16.10;99.90;;;;;;4927479;29;20538;-60
2022/07/11 05:27:20;;;;;;;2.85;1.10;;;16.10;99.90;;;;;;4943653;28;20132;-61
2022/07/11 05:29:46;;;;;;;2.70;0.95;;;16.10;99.90;;;;;;4938449;28;20043;-59
2022/07/11 05:32:11;;;;;;;2.03;1.10;;;16.10;99.90;;;;;;4926088;28;20078;-59
2022/07/11 05:34:37;;;;;;;2.13;0.93;;;16.10;99.90;;;;;;5043327;23;20048;-56
2022/07/11 05:37:03;;;;;;;2.17;0.73;;;16.10;99.90;;;;;;5047855;28;20086;-53
2022/07/11 05:39:29;;;;;;;2.33;0.65;;;16.10;99.90;;;;;;5048583;28;20037;-52
2022/07/11 05:41:55;;;;;;;3.17;1.10;;;16.10;99.90;;;;;;5031764;28;20048;-52
2022/07/11 05:44:21;;;;;;;2.80;1.00;;;16.10;99.90;;;;;;5045584;28;20514;-55
2022/07/11 05:46:47;;;;;;;1.83;0.65;;;16.20;99.90;;;;;;5039724;28;20076;-53
2022/07/11 05:49:12;;;;;;;2.15;0.77;;;16.20;99.90;;;;;;5034239;28;20033;-54
2022/07/11 05:51:38;;;;;;;1.85;0.75;;;16.20;99.90;;;;;;5040420;28;20037;-55
2022/07/11 05:54:05;;;;;;;1.30;0.70;;;16.20;99.90;;;;;;5047579;28;20553;-52
2022/07/11 05:56:31;;;;;;;0.93;0.60;;;16.20;99.90;;;;;;5047214;28;20147;-53
2022/07/11 05:58:58;;;;;;;1.15;0.50;;;16.20;99.90;;;;;;5037693;28;20119;-54
2022/07/11 06:01:25;;;;;;;2.53;0.80;;;16.30;99.90;;;;;;5067445;28;20052;-52
2022/07/11 06:03:51;;;;;;;1.90;0.70;;;16.30;99.90;;;;;;5044694;28;20048;-52
2022/07/11 06:06:17;;;;;;;1.23;0.80;;;16.30;99.90;;;;;;5043838;28;20048;-52
2022/07/11 06:08:43;;;;;;;1.48;0.80;;;16.30;99.90;;;;;;5027127;28;20041;-51
2022/07/11 06:11:14;;;;;;;1.58;0.80;;;16.20;99.90;;;;;;5047317;28;20178;-53
2022/07/11 06:13:42;;;;;;;2.10;1.00;;;16.30;99.90;;;;;;5048591;28;20066;-50
2022/07/11 06:16:09;;;;;;;2.60;1.10;;;16.30;99.90;;;;;;5044516;28;20047;-51
2022/07/11 06:18:35;;;;;;;2.17;1.08;;;16.30;99.90;;;;;;5046564;28;20041;-54
2022/07/11 06:21:02;;;;;;;2.35;0.77;;;16.30;99.90;;;;;;5039626;28;20124;-52
2022/07/11 06:23:27;;;;;;;3.85;0.80;;;16.30;99.90;;;;;;5041970;28;20080;-52
2022/07/11 06:25:54;;;;;;;2.92;1.02;;;16.30;99.90;;;;;;5044058;28;20126;-53
2022/07/11 06:28:19;;;;;;;2.35;0.88;;;16.30;99.90;;;;;;5062542;28;20472;-53
2022/07/11 06:30:45;;;;;;;1.45;0.75;;;16.30;99.90;;;;;;5064818;28;20045;-51
2022/07/11 06:33:11;;;;;;;2.35;0.60;;;16.40;99.90;;;;;;5023604;28;20601;-52
2022/07/11 06:35:37;;;;;;;2.08;0.75;;;16.40;99.90;;;;;;5043710;28;20037;-54
2022/07/11 06:38:03;;;;;;;4.47;0.80;;;16.40;99.90;;;;;;5043041;28;20131;-54
2022/07/11 06:40:29;;;;;;;4.82;0.90;;;16.40;99.90;;;;;;5036348;28;20167;-50
2022/07/11 06:42:55;;;;;;;2.15;0.60;;;16.50;99.90;;;;;;5040458;28;20055;-53
2022/07/11 06:45:20;;;;;;;2.28;1.20;;;16.50;99.90;;;;;;5008497;28;20033;-52
2022/07/11 06:47:46;;;;;;;2.20;0.80;;;16.60;99.90;;;;;;5039768;28;20057;-53
2022/07/11 06:50:12;;;;;;;2.58;0.80;;;16.50;99.90;;;;;;5050845;28;20037;-50
2022/07/11 06:52:38;;;;;;;2.08;1.05;;;16.60;99.90;;;;;;5028746;28;20053;-51
2022/07/11 06:55:04;;;;;;;2.30;0.65;;;16.70;99.90;;;;;;5040168;28;20118;-53
2022/07/11 06:57:30;;;;;;;1.63;0.70;;;16.80;99.90;;;;;;5040622;28;20405;-56
2022/07/11 06:59:56;;;;;;;1.75;0.50;;;16.90;99.90;;;;;;5006809;28;20049;-52
2022/07/11 07:02:26;;;;;;;1.17;0.40;;;16.90;99.90;;;;;;5044774;28;20053;-52
2022/07/11 07:04:51;;;;;;;2.17;0.98;;;16.90;99.90;;;;;;5033051;28;20582;-56
2022/07/11 07:07:17;;;;;;;2.38;0.73;;;16.80;99.90;;;;;;5038244;28;20124;-53
2022/07/11 07:09:43;;;;;;;2.25;0.60;;;16.80;99.90;;;;;;5025966;28;20041;-51
2022/07/11 07:12:09;;;;;;;2.63;0.50;;;16.90;99.90;;;;;;5028964;28;20072;-53
2022/07/11 07:14:34;;;;;;;1.08;0.40;;;16.90;99.90;;;;;;5041627;28;20052;-57
2022/07/11 07:17:00;;;;;;;2.78;0.40;;;16.80;99.90;;;;;;5048924;28;20053;-53
2022/07/11 07:19:26;;;;;;;0.30;0.20;;;16.90;99.90;;;;;;5043851;28;20508;-55
2022/07/11 07:21:51;;;;;;;0.55;0.40;;;17.00;99.90;;;;;;5045469;28;20053;-53
2022/07/11 07:24:17;;;;;;;0.45;0.35;;;17.00;99.90;;;;;;5043492;28;20041;-54
2022/07/11 07:26:43;;;;;;;1.10;0.38;;;17.00;99.90;;;;;;5028746;28;20037;-51
2022/07/11 07:29:08;;;;;;;0.32;0.10;;;17.10;99.90;;;;;;5044209;28;20363;-55
2022/07/11 07:31:34;;;;;;;0.32;0.20;;;17.10;99.90;;;;;;5032498;28;20044;-55
2022/07/11 07:34:00;;;;;;;0.55;0.30;;;17.20;99.90;;;;;;5045539;28;20584;-54
2022/07/11 07:36:25;;;;;;;1.67;0.50;;;17.20;99.90;;;;;;5046691;28;20048;-55
2022/07/11 07:38:51;;;;;;;0.73;0.40;;;17.20;99.90;;;;;;5040254;28;20124;-51
2022/07/11 07:41:17;;;;;;;2.75;0.43;;;17.20;99.90;;;;;;5036412;28;20063;-55
2022/07/11 07:43:43;;;;;;;0.50;0.30;;;17.20;99.90;;;;;;5050320;28;20690;-51
2022/07/11 07:46:10;;;;;;;1.52;0.40;;;17.20;99.90;;;;;;5051522;28;20061;-53
2022/07/11 07:48:36;;;;;;;1.05;0.40;;;17.30;99.90;;;;;;5046335;28;20083;-53
2022/07/11 07:51:02;;;;;;;0.82;0.30;;;17.30;99.90;;;;;;5047009;28;20194;-54
2022/07/11 07:53:28;;;;;;;2.05;0.40;;;17.30;99.90;;;;;;5045678;28;20473;-55
2022/07/11 07:55:54;;;;;;;0.90;0.20;;;17.40;99.90;;;;;;5050720;28;20103;-53
2022/07/11 07:58:19;;;;;;;0.73;0.30;;;17.50;99.90;;;;;;5034264;28;20059;-55
2022/07/11 08:03:46;;;;;;;0.63;0.25;;;17.70;99.90;;;;;;4974537;28;20148;-53
2022/07/11 08:06:11;;;;;;;1.00;0.30;;;17.70;99.90;;;;;;5037279;28;20061;-55
2022/07/11 08:08:38;;;;;;;1.15;0.32;;;17.60;99.90;;;;;;5043051;28;20084;-55
2022/07/11 08:11:03;;;;;;;0.40;0.40;;;17.50;99.90;;;;;;5032555;28;20167;-51
2022/07/11 08:13:29;;;;;;;0.30;0.20;;;17.60;99.90;;;;;;5043014;28;20124;-51
2022/07/11 08:15:56;;;;;;;1.25;0.30;;;17.70;99.90;;;;;;5043102;28;20060;-54
2022/07/11 08:18:22;;;;;;;1.50;0.40;;;17.70;99.90;;;;;;5049557;28;20044;-52
2022/07/11 08:20:47;;;;;;;0.47;0.30;;;17.80;99.90;;;;;;5049280;28;20387;-55
2022/07/11 08:23:13;;;;;;;0.63;0.30;;;17.80;99.90;;;;;;5050852;28;20040;-56
2022/07/11 08:25:40;;;;;;;0.52;0.40;;;17.90;99.90;;;;;;5044950;28;20041;-53
2022/07/11 08:28:06;;;;;;;1.85;0.57;;;18.20;99.90;;;;;;5044545;28;20042;-54
2022/07/11 08:30:32;;;;;;;1.77;0.30;;;18.10;99.90;;;;;;5051214;28;20434;-53
2022/07/11 08:32:58;;;;;;;1.60;0.50;;;18.00;99.90;;;;;;5042971;28;20119;-53
2022/07/11 08:35:24;;;;;;;1.20;0.55;;;18.00;99.90;;;;;;5043917;28;20052;-54
2022/07/11 08:37:50;;;;;;;4.13;0.60;;;18.00;99.90;;;;;;5029766;28;20033;-56
2022/07/11 08:40:16;;;;;;;2.40;0.60;;;18.00;99.90;;;;;;5044794;28;20674;-56
2022/07/11 08:42:44;;;;;;;0.82;0.40;;;18.10;99.90;;;;;;5051309;28;20399;-51
2022/07/11 08:45:14;;;;;;;2.08;0.60;;;18.10;99.90;;;;;;5031404;28;20041;-54
2022/07/11 08:47:40;;;;;;;2.25;0.57;;;18.20;99.90;;;;;;5041859;28;20229;-52
2022/07/11 08:50:07;;;;;;;1.60;0.50;;;18.30;99.90;;;;;;5055641;28;20127;-56
2022/07/11 08:52:33;;;;;;;2.17;0.60;;;18.30;99.90;;;;;;5041708;28;20056;-54
2022/07/11 08:54:59;;;;;;;1.33;0.60;;;18.40;99.90;;;;;;5045617;28;20536;-51
2022/07/11 08:57:25;;;;;;;0.65;0.40;;;18.30;99.90;;;;;;5038719;28;20049;-52
2022/07/11 08:59:57;;;;;;;1.13;0.50;;;18.30;99.90;;;;;;5029239;28;20041;-53
2022/07/11 09:02:25;;;;;;;2.33;0.80;;;18.20;99.90;;;;;;5051944;28;20046;-54
2022/07/11 09:04:50;;;;;;;0.45;0.30;;;18.20;99.90;;;;;;5044864;28;20048;-55
2022/07/11 09:07:16;;;;;;;0.25;0.25;;;18.20;99.90;;;;;;5045575;28;20041;-53
2022/07/11 09:09:42;;;;;;;0.70;0.50;;;18.20;99.90;;;;;;5014966;28;20403;-50
2022/07/11 09:12:12;;;;;;;0.52;0.40;;;18.10;99.90;;;;;;5055213;28;20052;-53
2022/07/11 09:14:38;;;;;;;1.40;0.70;;;18.20;99.90;;;;;;5046026;28;20120;-51
2022/07/11 09:17:06;;;;;;;0.52;0.25;;;18.20;99.90;;;;;;5049004;28;20041;-52
2022/07/11 09:19:39;;;;;;;1.38;0.50;;;18.20;99.90;;;;;;5052452;28;20119;-57
2022/07/11 09:27:52;;;;;;;0.50;0.30;;;18.20;99.90;;;;;;5039506;28;20491;-52
2022/07/11 09:30:28;;;;;;;0.80;0.40;;;18.20;99.90;;;;;;5060922;28;20049;-50
2022/07/11 09:33:09;;;;;;;0.60;0.25;;;18.40;99.90;;;;;;5039081;28;20041;-55
2022/07/11 09:35:45;;;;;;;0.93;0.30;;;18.70;99.90;;;;;;5051912;28;20496;-50
2022/07/11 09:38:13;;;;;;;0.77;0.30;;;18.90;99.90;;;;;;5058144;28;20049;-50
2022/07/11 09:40:43;;;;;;;2.05;0.50;;;19.00;99.90;;;;;;5046951;28;20488;-50
2022/07/11 09:43:09;;;;;;;0.68;0.32;;;19.10;99.90;;;;;;5026754;28;20098;-54
2022/07/11 09:45:35;;;;;;;1.05;0.40;;;19.20;99.90;;;;;;5033761;28;20037;-53
2022/07/11 09:48:09;;;;;;;1.20;0.60;;;19.30;99.90;;;;;;5048234;28;20045;-54
2022/07/11 09:50:35;;;;;;;1.67;0.43;;;19.30;99.90;;;;;;5045603;28;20045;-53
2022/07/11 09:53:20;;;;;;;0.55;0.30;;;19.30;99.90;;;;;;5042771;28;20060;-52
2022/07/11 09:55:46;;;;;;;1.40;0.50;;;19.40;99.90;;;;;;5025522;28;20442;-53
2022/07/11 09:58:15;;;;;;;0.60;0.40;;;19.30;99.90;;;;;;5049483;28;20072;-53
2022/07/11 10:00:43;;;;;;;0.30;0.30;;;19.40;99.90;;;;;;5038763;28;20045;-52
2022/07/11 10:03:11;;;;;;;0.50;0.30;;;19.60;99.90;;;;;;5045955;28;20041;-53
2022/07/11 10:05:37;;;;;;;0.50;0.40;;;19.80;99.90;;;;;;5048724;28;20045;-59
2022/07/11 10:08:04;;;;;;;1.13;0.38;;;19.90;99.90;;;;;;5049558;28;20107;-56
2022/07/11 10:10:32;;;;;;;1.08;0.45;;;19.70;99.90;;;;;;5045712;28;20064;-53
2022/07/11 10:12:58;;;;;;;1.77;0.47;;;19.70;99.90;;;;;;5050347;28;20044;-53
2022/07/11 10:15:34;;;;;;;1.95;0.60;;;19.80;99.90;;;;;;5050166;28;20105;-54
2022/07/11 10:18:00;;;;;;;0.88;0.30;;;19.80;99.90;;;;;;5043600;28;20037;-57
2022/07/11 10:20:56;;;;;;;0.95;0.40;;;19.70;99.90;;;;;;5050088;28;20094;-54
2022/07/11 10:23:30;;;;;;;0.47;0.30;;;19.70;99.90;;;;;;5039298;28;20041;-55
2022/07/11 10:26:35;;;;;;;2.92;0.70;;;19.80;99.90;;;;;;5049730;28;20111;-58
2022/07/11 10:29:03;;;;;;;;;;;19.80;99.90;;;;;;5040591;28;20037;-49
2022/07/11 10:31:30;;;;;;;0.63;0.43;;;19.70;99.90;;;;;;5056674;28;20379;-53
2022/07/11 10:34:04;;;;;;;0.30;0.30;;;19.70;99.90;;;;;;5064217;28;20048;-55
2022/07/11 10:36:32;;;;;;;0.52;0.40;;;19.50;99.90;;;;;;5045218;28;20108;-55
2022/07/11 10:39:24;;;;;;;1.85;0.50;;;19.50;99.90;;;;;;5042783;28;20508;-55
2022/07/11 10:41:51;;;;;;;0.35;0.35;;;19.70;99.90;;;;;;5049005;28;20554;-56
2022/07/11 10:44:17;;;;;;;0.68;0.38;;;19.80;99.90;;;;;;5041009;28;20045;-50
2022/07/11 10:46:43;;;;;;;0.40;0.40;;;20.00;99.90;;;;;;5044857;28;20040;-52
2022/07/11 10:49:15;;;;;;;0.47;0.47;;;20.10;99.90;;;;;;5046917;28;20044;-52
2022/07/11 10:51:50;;;;;;;0.43;0.30;;;20.10;99.90;;;;;;5048235;28;20067;-55
2022/07/11 10:54:18;;;;;;;0.35;0.30;;;20.20;99.90;;;;;;5045081;28;20185;-54
2022/07/11 10:57:02;;;;;;;2.13;0.60;;;20.30;99.90;;;;;;5040295;28;20099;-53
2022/07/11 10:59:28;;;;;;;0.77;0.50;;;20.40;99.90;;;;;;5043926;28;20499;-51
2022/07/11 11:02:11;;;;;;;1.05;0.40;;;20.50;99.90;;;;;;5063188;28;20044;-55
2022/07/11 11:05:01;;;;;;;1.23;0.50;;;20.50;99.90;;;;;;5038868;28;20036;-52
2022/07/11 11:07:43;;;;;;;1.63;1.48;;;20.50;99.90;;;;;;5053203;28;20495;-50
2022/07/11 11:10:18;;;;;;;0.88;0.40;;;20.30;99.90;;;;;;5046191;28;20037;-52
2022/07/11 11:13:04;;;;;;;0.80;0.40;;;20.20;99.90;;;;;;5051949;28;20037;-51
2022/07/11 11:15:51;;;;;;;2.72;0.50;;;20.20;99.90;;;;;;5049215;28;20057;-57
2022/07/11 11:18:26;;;;;;;2.35;0.75;;;19.90;99.90;;;;;;5024778;28;20057;-51
2022/07/11 11:21:00;;;;;;;0.60;0.40;;;20.10;99.90;;;;;;5035090;28;20321;-50
2022/07/11 11:23:44;;;;;;;1.45;0.50;;;20.30;99.90;;;;;;5047390;28;20082;-57
2022/07/11 11:26:20;;;;;;;;;;;20.40;99.90;;;;;;5051840;28;20049;-55
2022/07/11 11:29:06;;;;;;;0.60;0.55;;;20.40;99.90;;;;;;5036861;28;20339;-54
2022/07/11 11:31:35;;;;;;;0.95;0.40;;;20.30;99.90;;;;;;5043690;28;20040;-50
2022/07/11 11:34:02;;;;;;;1.17;0.60;;;20.20;99.90;;;;;;5054786;22;20033;-60
2022/07/11 11:36:29;;;;;;;1.30;0.55;;;20.30;99.90;;;;;;5037333;28;20049;-58
2022/07/11 11:38:55;;;;;;;2.90;1.35;;;20.20;99.90;;;;;;5030833;28;20072;-57
2022/07/11 11:41:26;;;;;;;2.35;0.60;;;20.20;99.90;;;;;;5041660;28;20068;-57
2022/07/11 11:43:54;;;;;;;0.80;0.52;;;20.10;99.90;;;;;;5024840;28;20507;-58
2022/07/11 11:46:24;;;;;;;1.27;0.60;;;19.80;99.90;;;;;;5030482;28;20385;-61
2022/07/11 11:48:50;;;;;;;0.60;0.43;;;19.90;99.90;;;;;;5025935;28;20080;-58
2022/07/11 11:51:20;;;;;;;3.40;0.68;;;19.70;99.90;;;;;;5029940;28;20551;-58
2022/07/11 11:53:52;;;;;;;0.63;0.63;;;19.70;99.90;;;;;;5029808;28;20030;-58
2022/07/11 11:56:28;;;;;;;2.58;0.75;;;19.70;99.90;;;;;;5032031;28;20056;-58
2022/07/11 11:59:12;;;;;;;2.97;0.80;;;19.80;99.90;;;;;;5032789;28;20120;-58
2022/07/11 12:01:43;;;;;;;2.35;0.70;;;19.80;99.90;;;;;;5046872;28;20037;-59
2022/07/11 12:04:15;;;;;;;2.15;0.80;;;19.70;99.90;;;;;;5029315;28;20148;-58
2022/07/11 12:06:46;;;;;;;2.65;0.90;;;19.70;99.90;;;;;;5013616;28;20136;-59
2022/07/11 12:09:17;;;;;;;1.05;0.80;;;19.70;99.90;;;;;;5029972;28;20041;-58
2022/07/11 12:11:45;;;;;;;0.60;0.60;;;19.70;99.90;;;;;;5032074;28;20092;-58
2022/07/11 12:14:13;;;;;;;1.20;0.68;;;19.60;99.90;;;;;;5025150;28;20072;-57
2022/07/11 12:16:43;;;;;;;1.00;0.80;;;19.70;99.90;;;;;;5038397;28;20403;-58
2022/07/11 12:19:11;;;;;;;2.20;0.85;;;19.70;99.90;;;;;;5035331;28;20038;-59
2022/07/11 12:21:39;;;;;;;1.10;0.85;;;19.60;99.90;;;;;;5028723;28;20045;-58
2022/07/11 12:24:08;;;;;;;1.10;1.00;;;19.50;99.90;;;;;;5046945;28;20033;-58
2022/07/11 12:26:37;;;;;;;2.25;1.20;;;19.60;99.90;;;;;;5036664;28;20575;-59
2022/07/11 12:29:10;;;;;;;1.40;0.95;;;19.60;99.90;;;;;;5023975;28;20062;-59
2022/07/11 12:31:46;;;;;;;1.55;0.88;;;19.50;99.90;;;;;;5038480;28;20437;-59
2022/07/11 12:34:13;;;;;;;1.85;1.10;;;19.40;99.90;;;;;;5042841;28;20458;-58
2022/07/11 12:36:39;;;;;;;1.60;1.10;;;19.40;99.90;;;;;;5036548;28;20041;-58
2022/07/11 12:39:05;;;;;;;1.77;1.23;;;19.40;99.90;;;;;;5033727;28;20040;-57
2022/07/11 12:41:33;;;;;;;3.40;1.35;;;19.50;99.90;;;;;;5020209;28;20048;-60
2022/07/11 12:46:46;;;;;;;2.38;1.52;;;19.40;99.90;;;;;;5028836;28;20050;-58
2022/07/11 12:49:12;;;;;;;1.77;1.10;;;19.40;99.90;;;;;;5037102;28;20069;-58
2022/07/11 12:51:40;;;;;;;3.13;1.05;;;19.30;99.90;;;;;;5029933;28;20053;-61
2022/07/11 12:54:14;;;;;;;2.63;1.15;;;19.50;99.90;;;;;;5036946;28;20090;-59
2022/07/11 12:56:51;;;;;;;1.70;1.13;;;19.50;99.90;;;;;;5038223;28;20522;-58
2022/07/11 12:59:22;;;;;;;2.05;1.10;;;19.50;99.90;;;;;;5031743;28;20442;-58
2022/07/11 13:01:55;;;;;;;2.38;1.50;;;19.40;99.90;;;;;;5043531;28;20053;-61
2022/07/11 13:04:38;;;;;;;1.50;1.23;;;19.40;99.90;;;;;;5031408;28;20038;-57